sensor_id;sensor_type;location;lat;lon;timestamp;pressure;altitude;pressure_sealevel;temperature;humidity
7180;BME280;3631;42.152;24.756;2023-03-07T00:00:00;98759.81;;;7.56;100.00
7180;BME280;3631;42.152;24.756;2023-03-07T00:02:28;98760.81;;;7.52;100.00
7180;BME280;3631;42.152;24.756;2023-03-07T00:04:54;98762.50;;;7.53;100.00
7180;BME280;3631;42.152;24.756;2023-03-07T00:07:21;98752.06;;;7.56;100.00
7180;BME280;3631;42.152;24.756;2023-03-07T00:09:48;98751.34;;;7.53;100.00
7180;BME280;3631;42.152;24.756;2023-03-07T00:12:16;98753.78;;;7.57;100.00
7180;BME280;3631;42.152;24.756;2023-03-07T00:14:45;98748.03;;;7.48;100.00
7180;BME280;3631;42.152;24.756;2023-03-07T00:17:12;98755.38;;;7.32;100.00
7180;BME280;3631;42.152;24.756;2023-03-07T00:19:40;98753.09;;;7.21;100.00
7180;BME280;3631;42.152;24.756;2023-03-07T00:22:07;98757.69;;;7.10;100.00
7180;BME280;3631;42.152;24.756;2023-03-07T00:24:34;98753.19;;;7.17;100.00
7180;BME280;3631;42.152;24.756;2023-03-07T00:27:02;98745.44;;;7.18;100.00
7180;BME280;3631;42.152;24.756;2023-03-07T00:29:30;98754.88;;;7.19;100.00
7180;BME280;3631;42.152;24.756;2023-03-07T00:31:57;98752.84;;;7.31;100.00
7180;BME280;3631;42.152;24.756;2023-03-07T00:34:24;98746.28;;;7.19;100.00
7180;BME280;3631;42.152;24.756;2023-03-07T00:36:51;98739.63;;;7.10;100.00
7180;BME280;3631;42.152;24.756;2023-03-07T00:39:18;98754.28;;;7.10;100.00
7180;BME280;3631;42.152;24.756;2023-03-07T00:41:45;98749.41;;;6.99;100.00
7180;BME280;3631;42.152;24.756;2023-03-07T00:44:12;98747.50;;;7.06;100.00
7180;BME280;3631;42.152;24.756;2023-03-07T00:46:40;98741.16;;;7.17;100.00
7180;BME280;3631;42.152;24.756;2023-03-07T00:49:07;98736.03;;;7.16;100.00
7180;BME280;3631;42.152;24.756;2023-03-07T00:51:34;98727.69;;;7.06;100.00
7180;BME280;3631;42.152;24.756;2023-03-07T00:54:01;98722.53;;;7.06;100.00
7180;BME280;3631;42.152;24.756;2023-03-07T00:56:28;98719.03;;;7.09;100.00
7180;BME280;3631;42.152;24.756;2023-03-07T00:58:55;98715.88;;;6.99;100.00
7180;BME280;3631;42.152;24.756;2023-03-07T01:01:23;98712.53;;;6.94;100.00
7180;BME280;3631;42.152;24.756;2023-03-07T01:03:52;98713.28;;;6.99;100.00
7180;BME280;3631;42.152;24.756;2023-03-07T01:06:21;98684.44;;;6.85;100.00
7180;BME280;3631;42.152;24.756;2023-03-07T01:08:48;98705.88;;;6.87;100.00
7180;BME280;3631;42.152;24.756;2023-03-07T01:11:15;98711.78;;;6.90;100.00
7180;BME280;3631;42.152;24.756;2023-03-07T01:13:43;98706.91;;;6.80;100.00
7180;BME280;3631;42.152;24.756;2023-03-07T01:16:12;98698.59;;;6.69;100.00
7180;BME280;3631;42.152;24.756;2023-03-07T01:18:39;98709.09;;;6.63;100.00
7180;BME280;3631;42.152;24.756;2023-03-07T01:21:12;98709.97;;;6.62;100.00
7180;BME280;3631;42.152;24.756;2023-03-07T01:23:40;98695.31;;;6.64;100.00
7180;BME280;3631;42.152;24.756;2023-03-07T01:26:10;98704.59;;;6.69;100.00
7180;BME280;3631;42.152;24.756;2023-03-07T01:28:37;98673.00;;;6.63;100.00
7180;BME280;3631;42.152;24.756;2023-03-07T01:31:04;98694.16;;;6.75;100.00
7180;BME280;3631;42.152;24.756;2023-03-07T01:33:31;98697.56;;;6.76;100.00
7180;BME280;3631;42.152;24.756;2023-03-07T01:35:58;98699.34;;;6.74;100.00
7180;BME280;3631;42.152;24.756;2023-03-07T01:38:26;98694.88;;;6.79;100.00
7180;BME280;3631;42.152;24.756;2023-03-07T01:40:58;98682.97;;;6.75;100.00
7180;BME280;3631;42.152;24.756;2023-03-07T01:43:27;98702.66;;;6.77;100.00
7180;BME280;3631;42.152;24.756;2023-03-07T01:49:10;98709.09;;;6.63;100.00
7180;BME280;3631;42.152;24.756;2023-03-07T01:51:40;98698.34;;;6.45;100.00
7180;BME280;3631;42.152;24.756;2023-03-07T01:54:11;98716.34;;;6.47;100.00
7180;BME280;3631;42.152;24.756;2023-03-07T01:56:42;98706.06;;;6.45;100.00
7180;BME280;3631;42.152;24.756;2023-03-07T01:59:10;98697.75;;;6.34;100.00
7180;BME280;3631;42.152;24.756;2023-03-07T02:01:37;98706.28;;;6.38;100.00
7180;BME280;3631;42.152;24.756;2023-03-07T02:04:08;98704.50;;;6.40;100.00
7180;BME280;3631;42.152;24.756;2023-03-07T02:06:38;98702.63;;;6.46;100.00
7180;BME280;3631;42.152;24.756;2023-03-07T02:09:06;98686.44;;;6.41;100.00
7180;BME280;3631;42.152;24.756;2023-03-07T02:11:39;98701.16;;;6.36;100.00
7180;BME280;3631;42.152;24.756;2023-03-07T02:14:08;98691.81;;;6.32;100.00
7180;BME280;3631;42.152;24.756;2023-03-07T02:16:35;98695.28;;;6.31;100.00
7180;BME280;3631;42.152;24.756;2023-03-07T02:19:08;98705.69;;;6.27;100.00
7180;BME280;3631;42.152;24.756;2023-03-07T02:21:40;98696.47;;;6.18;100.00
7180;BME280;3631;42.152;24.756;2023-03-07T02:24:17;98698.22;;;6.16;100.00
7180;BME280;3631;42.152;24.756;2023-03-07T02:26:50;98709.69;;;6.03;100.00
7180;BME280;3631;42.152;24.756;2023-03-07T02:29:18;98710.22;;;6.17;100.00
7180;BME280;3631;42.152;24.756;2023-03-07T02:31:46;98714.78;;;6.06;100.00
7180;BME280;3631;42.152;24.756;2023-03-07T02:34:20;98712.22;;;6.06;100.00
7180;BME280;3631;42.152;24.756;2023-03-07T02:36:49;98703.81;;;5.98;100.00
7180;BME280;3631;42.152;24.756;2023-03-07T02:39:19;98711.66;;;5.93;100.00
7180;BME280;3631;42.152;24.756;2023-03-07T02:41:50;98706.59;;;5.89;100.00
7180;BME280;3631;42.152;24.756;2023-03-07T02:44:19;98707.31;;;5.95;100.00
7180;BME280;3631;42.152;24.756;2023-03-07T02:46:46;98697.03;;;5.94;100.00
7180;BME280;3631;42.152;24.756;2023-03-07T02:49:13;98656.25;;;5.75;100.00
7180;BME280;3631;42.152;24.756;2023-03-07T02:51:40;98694.34;;;5.98;100.00
7180;BME280;3631;42.152;24.756;2023-03-07T02:54:07;98701.44;;;5.89;100.00
7180;BME280;3631;42.152;24.756;2023-03-07T02:56:34;98697.25;;;5.83;100.00
7180;BME280;3631;42.152;24.756;2023-03-07T02:59:03;98705.03;;;5.80;100.00
7180;BME280;3631;42.152;24.756;2023-03-07T03:01:30;98692.28;;;5.75;100.00
7180;BME280;3631;42.152;24.756;2023-03-07T03:03:57;98701.59;;;5.81;100.00
7180;BME280;3631;42.152;24.756;2023-03-07T03:06:24;98699.00;;;5.82;100.00
7180;BME280;3631;42.152;24.756;2023-03-07T03:08:51;98700.75;;;5.80;100.00
7180;BME280;3631;42.152;24.756;2023-03-07T03:11:18;98686.31;;;5.73;100.00
7180;BME280;3631;42.152;24.756;2023-03-07T03:13:44;98687.72;;;5.88;100.00
7180;BME280;3631;42.152;24.756;2023-03-07T03:16:13;98697.50;;;5.72;100.00
7180;BME280;3631;42.152;24.756;2023-03-07T03:18:40;98697.50;;;5.72;100.00
7180;BME280;3631;42.152;24.756;2023-03-07T03:21:07;98696.59;;;5.75;100.00
7180;BME280;3631;42.152;24.756;2023-03-07T03:23:35;98695.75;;;5.74;100.00
7180;BME280;3631;42.152;24.756;2023-03-07T03:26:03;98696.75;;;5.67;100.00
7180;BME280;3631;42.152;24.756;2023-03-07T03:28:32;98689.13;;;5.64;100.00
7180;BME280;3631;42.152;24.756;2023-03-07T03:31:00;98690.63;;;5.73;100.00
7180;BME280;3631;42.152;24.756;2023-03-07T03:33:29;98700.09;;;5.72;100.00
7180;BME280;3631;42.152;24.756;2023-03-07T03:35:56;98698.50;;;5.65;100.00
7180;BME280;3631;42.152;24.756;2023-03-07T03:38:23;98698.22;;;5.77;100.00
7180;BME280;3631;42.152;24.756;2023-03-07T03:40:50;98707.84;;;5.69;100.00
7180;BME280;3631;42.152;24.756;2023-03-07T03:43:17;98702.72;;;5.69;100.00
7180;BME280;3631;42.152;24.756;2023-03-07T03:45:52;98695.31;;;5.54;100.00
7180;BME280;3631;42.152;24.756;2023-03-07T03:48:19;98695.88;;;5.68;100.00
7180;BME280;3631;42.152;24.756;2023-03-07T03:50:48;98689.28;;;5.55;100.00
7180;BME280;3631;42.152;24.756;2023-03-07T03:53:15;98687.50;;;5.59;100.00
7180;BME280;3631;42.152;24.756;2023-03-07T03:55:42;98689.22;;;5.58;100.00
7180;BME280;3631;42.152;24.756;2023-03-07T03:58:09;98697.84;;;5.57;100.00
7180;BME280;3631;42.152;24.756;2023-03-07T04:00:36;98696.69;;;5.70;100.00
7180;BME280;3631;42.152;24.756;2023-03-07T04:03:03;98702.44;;;5.81;100.00
7180;BME280;3631;42.152;24.756;2023-03-07T04:05:32;98698.63;;;5.61;100.00
7180;BME280;3631;42.152;24.756;2023-03-07T04:08:01;98699.53;;;5.58;100.00
7180;BME280;3631;42.152;24.756;2023-03-07T04:10:28;98706.53;;;5.52;100.00
7180;BME280;3631;42.152;24.756;2023-03-07T04:12:55;98708.94;;;5.59;100.00
7180;BME280;3631;42.152;24.756;2023-03-07T04:15:22;98722.78;;;5.54;100.00
7180;BME280;3631;42.152;24.756;2023-03-07T04:17:49;98722.91;;;5.49;100.00
7180;BME280;3631;42.152;24.756;2023-03-07T04:20:16;98712.47;;;5.54;100.00
7180;BME280;3631;42.152;24.756;2023-03-07T04:22:43;98716.72;;;5.56;100.00
7180;BME280;3631;42.152;24.756;2023-03-07T04:25:11;98714.91;;;5.61;100.00
7180;BME280;3631;42.152;24.756;2023-03-07T04:27:38;98715.78;;;5.60;100.00
7180;BME280;3631;42.152;24.756;2023-03-07T04:30:06;98712.22;;;5.66;100.00
7180;BME280;3631;42.152;24.756;2023-03-07T04:32:33;98708.88;;;5.62;100.00
7180;BME280;3631;42.152;24.756;2023-03-07T04:35:01;98710.75;;;5.54;100.00
7180;BME280;3631;42.152;24.756;2023-03-07T04:37:28;98714.25;;;5.52;100.00
7180;BME280;3631;42.152;24.756;2023-03-07T04:39:55;98720.34;;;5.47;100.00
7180;BME280;3631;42.152;24.756;2023-03-07T04:42:23;98722.78;;;5.54;100.00
7180;BME280;3631;42.152;24.756;2023-03-07T04:44:50;98717.84;;;5.43;100.00
7180;BME280;3631;42.152;24.756;2023-03-07T04:47:17;98720.53;;;5.38;100.00
7180;BME280;3631;42.152;24.756;2023-03-07T04:49:43;98720.56;;;5.37;100.00
7180;BME280;3631;42.152;24.756;2023-03-07T04:52:10;98726.41;;;5.45;100.00
7180;BME280;3631;42.152;24.756;2023-03-07T04:54:38;98735.16;;;5.36;100.00
7180;BME280;3631;42.152;24.756;2023-03-07T04:57:05;98728.16;;;5.43;100.00
7180;BME280;3631;42.152;24.756;2023-03-07T04:59:34;98722.03;;;5.50;100.00
7180;BME280;3631;42.152;24.756;2023-03-07T05:02:05;98723.50;;;5.60;100.00
7180;BME280;3631;42.152;24.756;2023-03-07T05:04:32;98720.13;;;5.58;100.00
7180;BME280;3631;42.152;24.756;2023-03-07T05:06:59;98731.91;;;5.68;100.00
7180;BME280;3631;42.152;24.756;2023-03-07T05:09:26;98740.47;;;5.69;100.00
7180;BME280;3631;42.152;24.756;2023-03-07T05:11:53;98733.53;;;5.72;100.00
7180;BME280;3631;42.152;24.756;2023-03-07T05:14:20;98736.84;;;5.77;100.00
7180;BME280;3631;42.152;24.756;2023-03-07T05:16:48;98737.50;;;5.87;100.00
7180;BME280;3631;42.152;24.756;2023-03-07T05:19:15;98739.72;;;6.04;100.00
7180;BME280;3631;42.152;24.756;2023-03-07T05:21:42;98735.25;;;6.12;100.00
7180;BME280;3631;42.152;24.756;2023-03-07T05:24:09;98728.34;;;6.12;100.00
7180;BME280;3631;42.152;24.756;2023-03-07T05:26:36;98724.72;;;6.21;100.00
7180;BME280;3631;42.152;24.756;2023-03-07T05:29:03;98737.84;;;6.46;100.00
7180;BME280;3631;42.152;24.756;2023-03-07T05:31:30;98743.50;;;6.62;100.00
7180;BME280;3631;42.152;24.756;2023-03-07T05:33:58;98742.78;;;6.55;100.00
7180;BME280;3631;42.152;24.756;2023-03-07T05:36:25;98743.47;;;6.63;100.00
7180;BME280;3631;42.152;24.756;2023-03-07T05:38:56;98746.63;;;6.73;100.00
7180;BME280;3631;42.152;24.756;2023-03-07T05:41:26;98761.53;;;6.96;100.00
7180;BME280;3631;42.152;24.756;2023-03-07T05:43:53;98758.44;;;7.14;100.00
7180;BME280;3631;42.152;24.756;2023-03-07T05:46:20;98749.56;;;7.55;100.00
7180;BME280;3631;42.152;24.756;2023-03-07T05:48:47;98751.34;;;7.81;100.00
7180;BME280;3631;42.152;24.756;2023-03-07T05:51:15;98757.56;;;8.03;100.00
7180;BME280;3631;42.152;24.756;2023-03-07T05:53:42;98753.34;;;8.28;100.00
7180;BME280;3631;42.152;24.756;2023-03-07T05:56:10;98760.34;;;8.53;100.00
7180;BME280;3631;42.152;24.756;2023-03-07T05:58:37;98763.16;;;8.71;100.00
7180;BME280;3631;42.152;24.756;2023-03-07T06:01:04;98753.16;;;8.87;99.44
7180;BME280;3631;42.152;24.756;2023-03-07T06:03:31;98759.06;;;9.16;98.75
7180;BME280;3631;42.152;24.756;2023-03-07T06:05:58;98757.78;;;9.51;94.23
7180;BME280;3631;42.152;24.756;2023-03-07T06:08:27;98766.00;;;9.85;92.58
7180;BME280;3631;42.152;24.756;2023-03-07T06:10:54;98762.47;;;10.09;88.99
7180;BME280;3631;42.152;24.756;2023-03-07T06:13:22;98765.91;;;10.10;88.57
7180;BME280;3631;42.152;24.756;2023-03-07T06:15:49;98776.09;;;9.93;88.93
7180;BME280;3631;42.152;24.756;2023-03-07T06:18:17;98758.41;;;9.80;88.13
7180;BME280;3631;42.152;24.756;2023-03-07T06:20:53;98773.63;;;10.11;88.32
7180;BME280;3631;42.152;24.756;2023-03-07T06:23:20;98775.47;;;9.86;88.32
7180;BME280;3631;42.152;24.756;2023-03-07T06:25:48;98775.38;;;9.89;88.92
7180;BME280;3631;42.152;24.756;2023-03-07T06:28:15;98779.56;;;10.59;86.67
7180;BME280;3631;42.152;24.756;2023-03-07T06:30:42;98781.00;;;11.86;80.97
7180;BME280;3631;42.152;24.756;2023-03-07T06:33:09;98782.00;;;13.26;74.66
7180;BME280;3631;42.152;24.756;2023-03-07T06:35:37;98794.78;;;15.05;67.82
7180;BME280;3631;42.152;24.756;2023-03-07T06:38:04;98796.88;;;16.68;61.50
7180;BME280;3631;42.152;24.756;2023-03-07T06:40:31;98808.34;;;18.32;55.88
7180;BME280;3631;42.152;24.756;2023-03-07T06:43:00;98807.22;;;19.19;52.72
7180;BME280;3631;42.152;24.756;2023-03-07T06:45:27;98797.25;;;20.47;49.29
7180;BME280;3631;42.152;24.756;2023-03-07T06:47:53;98810.38;;;22.15;43.40
7180;BME280;3631;42.152;24.756;2023-03-07T06:50:20;98814.16;;;23.20;39.57
7180;BME280;3631;42.152;24.756;2023-03-07T06:52:47;98806.03;;;22.04;39.54
7180;BME280;3631;42.152;24.756;2023-03-07T06:55:16;98809.75;;;22.41;39.33
7180;BME280;3631;42.152;24.756;2023-03-07T06:57:43;98809.56;;;22.24;38.62
7180;BME280;3631;42.152;24.756;2023-03-07T07:00:13;98811.50;;;22.81;37.77
7180;BME280;3631;42.152;24.756;2023-03-07T07:02:40;98820.09;;;23.60;36.24
7180;BME280;3631;42.152;24.756;2023-03-07T07:05:07;98815.06;;;23.67;35.68
7180;BME280;3631;42.152;24.756;2023-03-07T07:07:34;98816.78;;;23.58;35.74
7180;BME280;3631;42.152;24.756;2023-03-07T07:10:01;98807.44;;;23.25;36.24
7180;BME280;3631;42.152;24.756;2023-03-07T07:12:29;98816.63;;;24.34;35.11
7180;BME280;3631;42.152;24.756;2023-03-07T07:14:56;98816.91;;;24.76;33.97
7180;BME280;3631;42.152;24.756;2023-03-07T07:17:28;98820.88;;;25.94;32.24
7180;BME280;3631;42.152;24.756;2023-03-07T07:19:55;98831.25;;;26.39;30.84
7180;BME280;3631;42.152;24.756;2023-03-07T07:22:22;98818.16;;;26.20;31.42
7180;BME280;3631;42.152;24.756;2023-03-07T07:24:49;98813.47;;;26.40;30.61
7180;BME280;3631;42.152;24.756;2023-03-07T07:27:16;98809.13;;;23.36;34.65
7180;BME280;3631;42.152;24.756;2023-03-07T07:29:43;98805.69;;;21.05;39.07
7180;BME280;3631;42.152;24.756;2023-03-07T07:32:10;98794.75;;;18.14;45.60
7180;BME280;3631;42.152;24.756;2023-03-07T07:34:38;98793.41;;;16.27;51.40
7180;BME280;3631;42.152;24.756;2023-03-07T07:37:05;98783.81;;;15.28;54.87
7180;BME280;3631;42.152;24.756;2023-03-07T07:39:32;98794.78;;;14.75;57.34
7180;BME280;3631;42.152;24.756;2023-03-07T07:41:59;98789.63;;;14.73;58.19
7180;BME280;3631;42.152;24.756;2023-03-07T07:44:28;98782.50;;;13.82;61.59
7180;BME280;3631;42.152;24.756;2023-03-07T07:46:55;98796.50;;;13.31;64.47
7180;BME280;3631;42.152;24.756;2023-03-07T07:49:22;98782.16;;;13.40;64.29
7180;BME280;3631;42.152;24.756;2023-03-07T07:51:50;98788.13;;;13.42;64.49
7180;BME280;3631;42.152;24.756;2023-03-07T07:54:17;98792.00;;;13.18;65.94
7180;BME280;3631;42.152;24.756;2023-03-07T07:56:44;98781.31;;;13.22;65.74
7180;BME280;3631;42.152;24.756;2023-03-07T07:59:11;98785.69;;;13.39;65.40
7180;BME280;3631;42.152;24.756;2023-03-07T08:01:38;98778.84;;;13.36;65.25
7180;BME280;3631;42.152;24.756;2023-03-07T08:04:05;98783.03;;;13.56;64.88
7180;BME280;3631;42.152;24.756;2023-03-07T08:06:32;98780.91;;;13.13;65.89
7180;BME280;3631;42.152;24.756;2023-03-07T08:09:00;98776.66;;;13.29;66.63
7180;BME280;3631;42.152;24.756;2023-03-07T08:11:28;98779.63;;;13.04;67.87
7180;BME280;3631;42.152;24.756;2023-03-07T08:13:55;98771.41;;;12.60;70.40
7180;BME280;3631;42.152;24.756;2023-03-07T08:16:22;98767.38;;;12.89;70.36
7180;BME280;3631;42.152;24.756;2023-03-07T08:18:50;98754.09;;;13.10;68.43
7180;BME280;3631;42.152;24.756;2023-03-07T08:21:18;98761.84;;;13.29;67.19
7180;BME280;3631;42.152;24.756;2023-03-07T08:23:45;98765.59;;;13.41;66.73
7180;BME280;3631;42.152;24.756;2023-03-07T08:26:14;98767.66;;;13.67;66.04
7180;BME280;3631;42.152;24.756;2023-03-07T08:28:42;98771.63;;;13.74;64.97
7180;BME280;3631;42.152;24.756;2023-03-07T08:31:10;98762.63;;;13.80;65.09
7180;BME280;3631;42.152;24.756;2023-03-07T08:33:37;98770.78;;;13.74;65.13
7180;BME280;3631;42.152;24.756;2023-03-07T08:36:05;98780.03;;;13.79;64.90
7180;BME280;3631;42.152;24.756;2023-03-07T08:38:33;98770.16;;;13.53;64.78
7180;BME280;3631;42.152;24.756;2023-03-07T08:41:00;98773.06;;;13.64;64.32
7180;BME280;3631;42.152;24.756;2023-03-07T08:43:30;98771.00;;;13.54;65.32
7180;BME280;3631;42.152;24.756;2023-03-07T08:45:58;98763.41;;;13.49;64.84
7180;BME280;3631;42.152;24.756;2023-03-07T08:48:26;98763.91;;;13.56;65.38
7180;BME280;3631;42.152;24.756;2023-03-07T08:50:53;98763.88;;;13.89;63.87
7180;BME280;3631;42.152;24.756;2023-03-07T08:53:21;98754.91;;;14.10;63.42
7180;BME280;3631;42.152;24.756;2023-03-07T08:55:48;98764.16;;;14.15;62.40
7180;BME280;3631;42.152;24.756;2023-03-07T08:58:15;98765.09;;;14.30;62.20
7180;BME280;3631;42.152;24.756;2023-03-07T09:00:43;98761.53;;;14.31;61.77
7180;BME280;3631;42.152;24.756;2023-03-07T09:03:10;98766.84;;;14.30;61.82
7180;BME280;3631;42.152;24.756;2023-03-07T09:05:37;98754.06;;;13.94;62.81
7180;BME280;3631;42.152;24.756;2023-03-07T09:08:04;98752.78;;;13.85;62.91
7180;BME280;3631;42.152;24.756;2023-03-07T09:10:32;98756.50;;;13.97;63.52
7180;BME280;3631;42.152;24.756;2023-03-07T09:12:59;98756.06;;;14.04;63.17
7180;BME280;3631;42.152;24.756;2023-03-07T09:15:26;98757.00;;;14.03;62.67
7180;BME280;3631;42.152;24.756;2023-03-07T09:17:54;98758.00;;;14.01;63.59
7180;BME280;3631;42.152;24.756;2023-03-07T09:20:21;98749.66;;;13.78;63.66
7180;BME280;3631;42.152;24.756;2023-03-07T09:22:49;98744.59;;;13.60;64.54
7180;BME280;3631;42.152;24.756;2023-03-07T09:25:19;98739.66;;;13.71;64.45
7180;BME280;3631;42.152;24.756;2023-03-07T09:27:46;98748.75;;;13.64;64.13
7180;BME280;3631;42.152;24.756;2023-03-07T09:30:14;98746.22;;;13.62;63.70
7180;BME280;3631;42.152;24.756;2023-03-07T09:32:41;98744.59;;;13.60;63.38
7180;BME280;3631;42.152;24.756;2023-03-07T09:35:09;98727.41;;;13.40;64.11
7180;BME280;3631;42.152;24.756;2023-03-07T09:37:36;98732.41;;;13.60;65.94
7180;BME280;3631;42.152;24.756;2023-03-07T09:40:05;98735.69;;;13.64;64.40
7180;BME280;3631;42.152;24.756;2023-03-07T09:42:38;98733.69;;;13.85;64.23
7180;BME280;3631;42.152;24.756;2023-03-07T09:45:18;98733.78;;;13.99;63.03
7180;BME280;3631;42.152;24.756;2023-03-07T09:47:57;98736.97;;;14.04;61.82
7180;BME280;3631;42.152;24.756;2023-03-07T09:50:40;98735.78;;;13.94;61.21
7180;BME280;3631;42.152;24.756;2023-03-07T09:53:16;98727.03;;;13.95;60.98
7180;BME280;3631;42.152;24.756;2023-03-07T09:55:45;98730.41;;;13.97;61.15
7180;BME280;3631;42.152;24.756;2023-03-07T09:58:18;98714.09;;;14.09;61.26
7180;BME280;3631;42.152;24.756;2023-03-07T10:00:47;98710.03;;;14.19;60.38
7180;BME280;3631;42.152;24.756;2023-03-07T10:03:27;98714.66;;;14.14;58.92
7180;BME280;3631;42.152;24.756;2023-03-07T10:06:02;98716.00;;;14.21;58.87
7180;BME280;3631;42.152;24.756;2023-03-07T10:08:34;98709.91;;;14.36;58.74
7180;BME280;3631;42.152;24.756;2023-03-07T10:11:09;98707.03;;;14.57;58.25
7180;BME280;3631;42.152;24.756;2023-03-07T10:13:51;98699.72;;;14.77;58.05
7180;BME280;3631;42.152;24.756;2023-03-07T10:16:25;98701.50;;;14.77;57.48
7180;BME280;3631;42.152;24.756;2023-03-07T10:19:09;98702.84;;;14.98;57.37
7180;BME280;3631;42.152;24.756;2023-03-07T10:21:49;98698.34;;;15.14;56.58
7180;BME280;3631;42.152;24.756;2023-03-07T10:24:29;98701.91;;;15.13;54.96
7180;BME280;3631;42.152;24.756;2023-03-07T10:27:01;98688.66;;;15.16;54.92
7180;BME280;3631;42.152;24.756;2023-03-07T10:29:35;98688.00;;;15.27;54.75
7180;BME280;3631;42.152;24.756;2023-03-07T10:32:15;98683.34;;;15.32;54.53
7180;BME280;3631;42.152;24.756;2023-03-07T10:34:44;98675.09;;;15.38;55.11
7180;BME280;3631;42.152;24.756;2023-03-07T10:37:17;98678.47;;;15.26;55.00
7180;BME280;3631;42.152;24.756;2023-03-07T10:39:49;98664.19;;;15.32;54.36
7180;BME280;3631;42.152;24.756;2023-03-07T10:42:18;98664.94;;;15.19;55.74
7180;BME280;3631;42.152;24.756;2023-03-07T10:44:47;98645.81;;;15.05;56.35
7180;BME280;3631;42.152;24.756;2023-03-07T10:47:19;98653.66;;;15.19;57.00
7180;BME280;3631;42.152;24.756;2023-03-07T10:49:48;98637.41;;;15.28;57.15
7180;BME280;3631;42.152;24.756;2023-03-07T10:52:26;98639.44;;;15.37;58.73
7180;BME280;3631;42.152;24.756;2023-03-07T10:55:29;98636.81;;;15.37;57.69
7180;BME280;3631;42.152;24.756;2023-03-07T10:58:11;98634.28;;;15.36;57.41
7180;BME280;3631;42.152;24.756;2023-03-07T11:00:38;98625.25;;;15.27;55.72
7180;BME280;3631;42.152;24.756;2023-03-07T11:03:20;98607.13;;;15.24;55.57
7180;BME280;3631;42.152;24.756;2023-03-07T11:05:48;98598.59;;;15.08;56.85
7180;BME280;3631;42.152;24.756;2023-03-07T11:08:25;98613.44;;;15.07;56.66
7180;BME280;3631;42.152;24.756;2023-03-07T11:10:52;98595.50;;;15.01;57.12
7180;BME280;3631;42.152;24.756;2023-03-07T11:13:21;98596.81;;;15.08;55.60
7180;BME280;3631;42.152;24.756;2023-03-07T11:15:48;98589.50;;;15.13;55.35
7180;BME280;3631;42.152;24.756;2023-03-07T11:18:28;98584.75;;;15.34;54.30
7180;BME280;3631;42.152;24.756;2023-03-07T11:20:57;98589.31;;;15.31;52.52
7180;BME280;3631;42.152;24.756;2023-03-07T11:23:27;98578.38;;;15.24;54.03
7180;BME280;3631;42.152;24.756;2023-03-07T11:25:56;98571.94;;;15.30;53.71
7180;BME280;3631;42.152;24.756;2023-03-07T11:28:28;98562.94;;;15.48;54.33
7180;BME280;3631;42.152;24.756;2023-03-07T11:31:08;98557.25;;;15.41;54.42
7180;BME280;3631;42.152;24.756;2023-03-07T11:33:46;98555.50;;;15.42;55.12
7180;BME280;3631;42.152;24.756;2023-03-07T11:36:16;98550.34;;;15.40;54.61
7180;BME280;3631;42.152;24.756;2023-03-07T11:38:57;98551.81;;;15.17;53.88
7180;BME280;3631;42.152;24.756;2023-03-07T11:41:28;98543.59;;;15.23;53.75
7180;BME280;3631;42.152;24.756;2023-03-07T11:44:18;98528.78;;;15.37;53.26
7180;BME280;3631;42.152;24.756;2023-03-07T11:47:09;98514.53;;;15.28;53.04
7180;BME280;3631;42.152;24.756;2023-03-07T11:49:43;98535.56;;;15.53;52.84
7180;BME280;3631;42.152;24.756;2023-03-07T11:52:29;98518.78;;;15.57;53.04
7180;BME280;3631;42.152;24.756;2023-03-07T11:55:14;98503.00;;;15.45;53.74
7180;BME280;3631;42.152;24.756;2023-03-07T11:57:52;98520.88;;;15.65;53.42
7180;BME280;3631;42.152;24.756;2023-03-07T12:00:29;98510.22;;;15.68;52.30
7180;BME280;3631;42.152;24.756;2023-03-07T12:03:19;98498.59;;;15.72;53.05
7180;BME280;3631;42.152;24.756;2023-03-07T12:05:57;98503.03;;;15.84;51.77
7180;BME280;3631;42.152;24.756;2023-03-07T12:08:39;98486.69;;;15.68;52.42
7180;BME280;3631;42.152;24.756;2023-03-07T12:11:26;98500.59;;;15.81;52.27
7180;BME280;3631;42.152;24.756;2023-03-07T12:14:04;98502.94;;;15.86;50.84
7180;BME280;3631;42.152;24.756;2023-03-07T12:16:42;98495.59;;;15.78;49.32
7180;BME280;3631;42.152;24.756;2023-03-07T12:19:25;98492.22;;;15.76;50.06
7180;BME280;3631;42.152;24.756;2023-03-07T12:25:14;98481.97;;;15.73;49.70
7180;BME280;3631;42.152;24.756;2023-03-07T12:27:52;98479.06;;;15.78;50.14
7180;BME280;3631;42.152;24.756;2023-03-07T12:30:24;98478.25;;;15.90;50.93
7180;BME280;3631;42.152;24.756;2023-03-07T12:32:53;98483.06;;;15.96;49.07
7180;BME280;3631;42.152;24.756;2023-03-07T12:35:22;98471.31;;;15.76;49.58
7180;BME280;3631;42.152;24.756;2023-03-07T12:37:53;98473.94;;;15.76;49.23
7180;BME280;3631;42.152;24.756;2023-03-07T12:40:24;98472.47;;;15.85;49.43
7180;BME280;3631;42.152;24.756;2023-03-07T12:42:59;98469.00;;;15.84;50.76
7180;BME280;3631;42.152;24.756;2023-03-07T12:45:35;98467.47;;;16.07;50.57
7180;BME280;3631;42.152;24.756;2023-03-07T12:48:11;98466.94;;;16.15;51.17
7180;BME280;3631;42.152;24.756;2023-03-07T12:50:48;98466.09;;;16.27;49.99
7180;BME280;3631;42.152;24.756;2023-03-07T12:53:23;98468.63;;;16.41;48.96
7180;BME280;3631;42.152;24.756;2023-03-07T12:55:57;98472.59;;;16.47;49.29
7180;BME280;3631;42.152;24.756;2023-03-07T12:58:35;98458.88;;;16.56;48.77
7180;BME280;3631;42.152;24.756;2023-03-07T13:01:09;98469.94;;;16.59;48.40
7180;BME280;3631;42.152;24.756;2023-03-07T13:03:41;98458.44;;;16.62;47.87
7180;BME280;3631;42.152;24.756;2023-03-07T13:06:15;98456.25;;;16.68;48.00
7180;BME280;3631;42.152;24.756;2023-03-07T13:08:46;98450.19;;;16.68;47.55
7180;BME280;3631;42.152;24.756;2023-03-07T13:11:17;98450.91;;;16.70;47.61
7180;BME280;3631;42.152;24.756;2023-03-07T13:13:49;98471.13;;;16.81;47.60
7180;BME280;3631;42.152;24.756;2023-03-07T13:16:33;98469.09;;;16.84;47.61
7180;BME280;3631;42.152;24.756;2023-03-07T13:28:45;98457.84;;;16.95;46.96
7180;BME280;3631;42.152;24.756;2023-03-07T13:31:40;98456.69;;;16.99;47.00
7180;BME280;3631;42.152;24.756;2023-03-07T13:37:47;98457.47;;;17.12;45.55
7180;BME280;3631;42.152;24.756;2023-03-07T13:40:51;98451.00;;;17.29;45.37
7180;BME280;3631;42.152;24.756;2023-03-07T13:46:45;98444.91;;;17.28;43.94
7180;BME280;3631;42.152;24.756;2023-03-07T13:49:41;98445.50;;;17.21;44.50